Las Cruces, NM

4:40 AM MDT on April 25, 2018 (GMT -0600)
Las Cruces International

Weather History for KLRU - January, 2013

Change the Weather History Date:

Tuesday, January 15, 2013

  Actual Average Record
Temperature  
Mean Temperature 26 °F -  
Max Temperature 35 °F 53 °F 73 °F (2003)
Min Temperature 17 °F 31 °F 17 °F (2013)
Degree Days  
Heating Degree Days 39    
Moisture  
Dew Point 1 °F    
Average Humidity 36    
Maximum Humidity 56    
Minimum Humidity 17    
Precipitation  
Precipitation 0.00 in - - ()
Sea Level Pressure  
Sea Level Pressure 30.19 in    
Wind  
Wind Speed 13 mph (NNW)    
Max Wind Speed 21 mph    
Max Gust Speed 26 mph    
Visibility 10 miles    
Events      
Averages and records for this station are not official NWS values.
T = Trace of Precipitation, MM = Missing Value Source: NWS Daily Summary

Daily Weather History Graph

Daily Weather History Graph

Search for Another Location

Airport or City:

Astronomy

Jan. 15, 2013 Rise Set
Actual Time 7:09 AM MST 5:25 PM MST
Civil Twilight 6:42 AM MST 5:52 PM MST
Nautical Twilight 6:12 AM MST 6:22 PM MST
Astronomical Twilight 5:42 AM MST 6:51 PM MST
Moon 9:34 AM MST (1/15) 9:58 PM MST (1/15)
Length of Visible Light 11h 09m
Length of Day
10h 16m
Waxing Crescent, 20% of the Moon is Illuminated
Jan 15
Waxing Crescent
Jan 18
First Quarter
Jan 26
Full
Feb 3
Last Quarter
Feb 10
New

Hourly Weather History & Observations

Time (MST) Temp. Windchill Dew Point Humidity Pressure Visibility Wind Dir Wind Speed Gust Speed Precip Events Conditions
12:15 AM 25.9 °F 17.4 °F 1.4 °F 35% 30.04 in 10.0 mi North 8.1 mph - N/A   Clear
12:35 AM 26.1 °F 15.0 °F 1.9 °F 35% 30.04 in 10.0 mi North 12.7 mph - N/A   Clear
12:55 AM 25.7 °F 14.0 °F 3.2 °F 38% 30.04 in 10.0 mi NNW 13.8 mph 19.6 mph N/A   Scattered Clouds
1:15 AM 25.5 °F 13.3 °F 5.9 °F 43% 30.05 in 10.0 mi NNW 15.0 mph - N/A   Mostly Cloudy
1:35 AM 25.0 °F 13.6 °F 6.6 °F 46% 30.06 in 10.0 mi NNW 12.7 mph - N/A   Overcast
1:55 AM 24.1 °F 12.5 °F 7.9 °F 50% 30.07 in 10.0 mi NNW 12.7 mph - N/A   Overcast
2:15 AM 24.6 °F 12.7 °F 8.8 °F 51% 30.07 in 10.0 mi NNW 13.8 mph 18.4 mph N/A   Overcast
2:35 AM 23.9 °F 11.2 °F 9.1 °F 53% 30.07 in 10.0 mi NNW 15.0 mph 19.6 mph N/A   Mostly Cloudy
2:55 AM 23.5 °F 11.8 °F 9.3 °F 55% 30.08 in 10.0 mi NNW 12.7 mph - N/A   Clear
3:15 AM 23.0 °F 10.1 °F 9.5 °F 56% 30.08 in 10.0 mi NNW 15.0 mph - N/A   Clear
3:55 AM 23.9 °F 10.3 °F 9.7 °F 55% 30.08 in 10.0 mi NNW 17.3 mph 23.0 mph N/A   Mostly Cloudy
4:15 AM 23.7 °F 10.1 °F 9.5 °F 55% 30.08 in 10.0 mi NNW 17.3 mph 24.2 mph N/A   Overcast
4:35 AM 23.0 °F 9.6 °F 9.3 °F 56% 30.09 in 10.0 mi North 16.1 mph 24.2 mph N/A   Mostly Cloudy
5:15 AM 23.0 °F 9.6 °F 8.6 °F 54% 30.10 in 10.0 mi NNW 16.1 mph 21.9 mph N/A   Overcast
5:35 AM 22.8 °F 10.4 °F 8.1 °F 53% 30.11 in 10.0 mi North 13.8 mph - N/A   Overcast
5:55 AM 23.0 °F 8.3 °F 7.5 °F 52% 30.12 in 10.0 mi NNW 19.6 mph 23.0 mph N/A   Overcast
6:15 AM 22.6 °F 8.3 °F 6.8 °F 51% 30.12 in 10.0 mi NNW 18.4 mph 24.2 mph N/A   Overcast
6:35 AM 21.9 °F 7.8 °F 6.6 °F 52% 30.13 in 10.0 mi NNW 17.3 mph 23.0 mph N/A   Overcast
6:55 AM 21.0 °F 7.1 °F 6.1 °F 53% 30.14 in 10.0 mi NNW 16.1 mph 21.9 mph N/A   Overcast
7:15 AM 20.5 °F 5.9 °F 6.4 °F 55% 30.15 in 10.0 mi North 17.3 mph 25.3 mph N/A   Scattered Clouds
7:35 AM 20.8 °F 5.9 °F 6.1 °F 53% 30.16 in 10.0 mi NNW 18.4 mph 23.0 mph N/A   Clear
7:55 AM 21.6 °F 7.8 °F 5.9 °F 51% 30.17 in 10.0 mi NNW 16.1 mph 23.0 mph N/A   Clear
8:15 AM 22.3 °F 8.2 °F 5.9 °F 50% 30.18 in 10.0 mi NNW 17.3 mph 24.2 mph N/A   Clear
8:35 AM 23.4 °F 8.4 °F 5.5 °F 47% 30.19 in 10.0 mi NNW 20.7 mph 26.5 mph N/A   Clear
8:55 AM 24.6 °F 10.9 °F 5.2 °F 44% 30.19 in 10.0 mi NNW 18.4 mph 24.2 mph N/A   Clear
9:15 AM 25.5 °F 12.4 °F 3.9 °F 40% 30.20 in 10.0 mi NNW 17.3 mph 24.2 mph N/A   Clear
9:35 AM 27.1 °F 13.8 °F 3.4 °F 36% 30.20 in 10.0 mi North 19.6 mph 23.0 mph N/A   Clear
9:55 AM 27.9 °F 14.7 °F 2.7 °F 34% 30.20 in 10.0 mi NNW 19.6 mph 25.3 mph N/A   Clear
10:15 AM 28.8 °F 16.2 °F 2.7 °F 33% 30.19 in 10.0 mi NNW 18.4 mph 26.5 mph N/A   Clear
10:35 AM 29.1 °F 17.1 °F 1.8 °F 31% 30.20 in 10.0 mi NNW 17.3 mph 25.3 mph N/A   Clear
10:55 AM 29.7 °F 17.4 °F 1.8 °F 30% 30.20 in 10.0 mi NNW 18.4 mph - N/A   Clear
11:15 AM 30.7 °F 19.2 °F 1.6 °F 29% 30.20 in 10.0 mi NNW 17.3 mph - N/A   Clear
11:35 AM 31.6 °F 21.6 °F 0.7 °F 27% 30.19 in 10.0 mi NNW 13.8 mph 21.9 mph N/A   Clear
11:55 AM 32.2 °F 21.8 °F -1.7 °F 24% 30.18 in 10.0 mi North 15.0 mph 19.6 mph N/A   Clear
12:35 PM 33.3 °F 23.7 °F -2.2 °F 22% 30.16 in 10.0 mi North 13.8 mph 17.3 mph N/A   Clear
12:55 PM 33.6 °F 24.1 °F -1.3 °F 23% 30.16 in 10.0 mi North 13.8 mph - N/A   Clear
1:15 PM 33.8 °F 25.3 °F -1.8 °F 22% 30.16 in 10.0 mi North 11.5 mph - N/A   Clear
1:35 PM 34.2 °F 26.2 °F -3.1 °F 20% 30.16 in 10.0 mi NNW 10.4 mph 19.6 mph N/A   Clear
1:55 PM 34.7 °F 25.9 °F -4.2 °F 19% 30.16 in 10.0 mi North 12.7 mph 18.4 mph N/A   Clear
2:15 PM 34.5 °F 27.9 °F -4.0 °F 19% 30.17 in 10.0 mi North 8.1 mph 18.4 mph N/A   Clear
2:35 PM 34.0 °F 26.0 °F -3.3 °F 20% 30.17 in 10.0 mi NW 10.4 mph - N/A   Clear
2:55 PM 35.2 °F 27.6 °F -2.7 °F 20% 30.18 in 10.0 mi North 10.4 mph - N/A   Clear
3:15 PM 34.9 °F 29.0 °F -4.4 °F 19% 30.17 in 10.0 mi NNW 6.9 mph - N/A   Clear
3:35 PM 35.6 °F 27.1 °F -5.1 °F 18% 30.19 in 10.0 mi NNW 12.7 mph 18.4 mph N/A   Clear
3:55 PM 35.6 °F 27.1 °F -5.4 °F 17% 30.20 in 10.0 mi NNW 12.7 mph 18.4 mph N/A   Clear
4:35 PM 34.2 °F 26.2 °F -4.5 °F 19% 30.21 in 10.0 mi North 10.4 mph - N/A   Clear
4:55 PM 33.4 °F 27.3 °F -3.5 °F 21% 30.22 in 10.0 mi NNE 6.9 mph - N/A   Clear
5:15 PM 32.0 °F 23.6 °F -4.0 °F 21% 30.23 in 10.0 mi North 10.4 mph - N/A   Clear
5:35 PM 30.9 °F 22.8 °F -4.0 °F 22% 30.24 in 10.0 mi North 9.2 mph - N/A   Clear
5:55 PM 29.3 °F 22.3 °F -4.0 °F 24% 30.25 in 10.0 mi North 6.9 mph - N/A   Clear
6:15 PM 25.9 °F 19.2 °F -4.4 °F 27% 30.25 in 10.0 mi NNW 5.8 mph - N/A   Clear
6:35 PM 23.5 °F 15.4 °F -4.9 °F 29% 30.27 in 10.0 mi North 6.9 mph - N/A   Clear
6:55 PM 22.8 °F 14.5 °F -4.9 °F 30% 30.27 in 10.0 mi North 6.9 mph - N/A   Clear
7:15 PM 22.8 °F 13.6 °F -4.9 °F 30% 30.28 in 10.0 mi NNW 8.1 mph - N/A   Clear
7:35 PM 21.2 °F 12.6 °F -5.1 °F 31% 30.29 in 10.0 mi NW 6.9 mph - N/A   Clear
7:55 PM 20.3 °F 12.5 °F -5.1 °F 33% 30.29 in 10.0 mi NNW 5.8 mph - N/A   Clear
8:15 PM 19.8 °F 11.9 °F -4.9 °F 34% 30.29 in 10.0 mi NNW 5.8 mph - N/A   Clear
8:35 PM 19.4 °F - -5.1 °F 34% 30.30 in 10.0 mi Calm Calm - N/A   Clear
8:55 PM 17.2 °F 8.9 °F -5.1 °F 37% 30.30 in 10.0 mi NW 5.8 mph - N/A   Clear
9:15 PM 17.4 °F 9.1 °F -4.9 °F 37% 30.30 in 10.0 mi WNW 5.8 mph - N/A   Clear
9:35 PM 18.7 °F 10.6 °F -4.2 °F 36% 30.30 in 10.0 mi NW 5.8 mph - N/A   Clear
9:55 PM 17.6 °F 7.3 °F -4.2 °F 38% 30.30 in 10.0 mi NW 8.1 mph - N/A   Clear
10:15 PM 19.4 °F 9.5 °F -4.0 °F 36% 30.31 in 10.0 mi NW 8.1 mph - N/A   Clear
10:35 PM 18.9 °F 9.8 °F -4.0 °F 36% 30.32 in 10.0 mi NNW 6.9 mph - N/A   Clear
11:15 PM 21.7 °F 15.5 °F -4.2 °F 32% 30.31 in 10.0 mi NW 4.6 mph - N/A   Clear
11:35 PM 20.3 °F 12.5 °F -4.9 °F 33% 30.32 in 10.0 mi NW 5.8 mph - N/A   Clear
11:55 PM 18.3 °F 9.1 °F -4.9 °F 36% 30.33 in 10.0 mi NNW 6.9 mph - N/A   Clear